sensor_id;sensor_type;location;lat;lon;timestamp;P1;durP1;ratioP1;P2;durP2;ratioP2
20004;SDS011;68409;45.498;-73.582;2023-03-31T00:00:36;2.50;;;2.07;;
20004;SDS011;68409;45.498;-73.582;2023-03-31T00:03:02;3.27;;;2.20;;
20004;SDS011;68409;45.498;-73.582;2023-03-31T00:05:35;4.60;;;1.97;;
20004;SDS011;68409;45.498;-73.582;2023-03-31T00:08:02;5.00;;;2.10;;
20004;SDS011;68409;45.498;-73.582;2023-03-31T00:10:32;9.60;;;2.13;;
20004;SDS011;68409;45.498;-73.582;2023-03-31T00:12:59;6.70;;;2.17;;
20004;SDS011;68409;45.498;-73.582;2023-03-31T00:15:26;6.70;;;1.80;;
20004;SDS011;68409;45.498;-73.582;2023-03-31T00:17:52;10.07;;;2.40;;
20004;SDS011;68409;45.498;-73.582;2023-03-31T00:20:18;11.13;;;2.17;;
20004;SDS011;68409;45.498;-73.582;2023-03-31T00:22:45;7.20;;;1.87;;
20004;SDS011;68409;45.498;-73.582;2023-03-31T00:25:11;3.70;;;1.90;;
20004;SDS011;68409;45.498;-73.582;2023-03-31T00:27:40;12.47;;;2.13;;
20004;SDS011;68409;45.498;-73.582;2023-03-31T00:30:08;3.20;;;1.87;;
20004;SDS011;68409;45.498;-73.582;2023-03-31T00:32:35;6.80;;;2.07;;
20004;SDS011;68409;45.498;-73.582;2023-03-31T00:35:01;3.83;;;1.83;;
20004;SDS011;68409;45.498;-73.582;2023-03-31T00:37:28;2.20;;;2.00;;
20004;SDS011;68409;45.498;-73.582;2023-03-31T00:39:54;2.70;;;2.10;;
20004;SDS011;68409;45.498;-73.582;2023-03-31T00:42:21;2.93;;;1.90;;
20004;SDS011;68409;45.498;-73.582;2023-03-31T00:47:41;4.60;;;2.00;;
20004;SDS011;68409;45.498;-73.582;2023-03-31T00:50:34;3.30;;;2.07;;
20004;SDS011;68409;45.498;-73.582;2023-03-31T00:53:07;2.87;;;2.07;;
20004;SDS011;68409;45.498;-73.582;2023-03-31T00:55:41;4.87;;;2.50;;
20004;SDS011;68409;45.498;-73.582;2023-03-31T00:58:10;6.53;;;2.47;;
20004;SDS011;68409;45.498;-73.582;2023-03-31T01:00:47;9.60;;;2.90;;
20004;SDS011;68409;45.498;-73.582;2023-03-31T01:03:17;6.43;;;1.97;;
20004;SDS011;68409;45.498;-73.582;2023-03-31T01:05:47;4.37;;;2.37;;
20004;SDS011;68409;45.498;-73.582;2023-03-31T01:08:18;5.20;;;2.03;;
20004;SDS011;68409;45.498;-73.582;2023-03-31T01:10:50;8.23;;;2.60;;
20004;SDS011;68409;45.498;-73.582;2023-03-31T01:13:20;10.00;;;2.30;;
20004;SDS011;68409;45.498;-73.582;2023-03-31T01:15:47;4.57;;;2.40;;
20004;SDS011;68409;45.498;-73.582;2023-03-31T01:18:13;3.00;;;2.27;;
20004;SDS011;68409;45.498;-73.582;2023-03-31T01:35:07;7.23;;;3.10;;
20004;SDS011;68409;45.498;-73.582;2023-03-31T01:43:45;8.80;;;2.20;;
20004;SDS011;68409;45.498;-73.582;2023-03-31T01:55:06;22.40;;;2.87;;
20004;SDS011;68409;45.498;-73.582;2023-03-31T01:57:40;5.30;;;2.53;;
20004;SDS011;68409;45.498;-73.582;2023-03-31T02:00:18;10.17;;;2.53;;
20004;SDS011;68409;45.498;-73.582;2023-03-31T02:03:02;10.60;;;2.57;;
20004;SDS011;68409;45.498;-73.582;2023-03-31T02:05:34;9.63;;;3.30;;
20004;SDS011;68409;45.498;-73.582;2023-03-31T02:10:36;8.33;;;2.70;;
20004;SDS011;68409;45.498;-73.582;2023-03-31T02:13:05;4.53;;;2.53;;
20004;SDS011;68409;45.498;-73.582;2023-03-31T02:15:36;5.20;;;2.40;;
20004;SDS011;68409;45.498;-73.582;2023-03-31T02:18:06;4.40;;;1.93;;
20004;SDS011;68409;45.498;-73.582;2023-03-31T02:20:36;2.87;;;2.50;;
20004;SDS011;68409;45.498;-73.582;2023-03-31T02:23:06;6.90;;;2.47;;
20004;SDS011;68409;45.498;-73.582;2023-03-31T02:25:37;6.97;;;2.30;;
20004;SDS011;68409;45.498;-73.582;2023-03-31T02:28:20;9.50;;;2.63;;
20004;SDS011;68409;45.498;-73.582;2023-03-31T02:33:24;7.50;;;2.43;;
20004;SDS011;68409;45.498;-73.582;2023-03-31T02:35:50;4.60;;;2.10;;
20004;SDS011;68409;45.498;-73.582;2023-03-31T02:38:16;4.77;;;2.13;;
20004;SDS011;68409;45.498;-73.582;2023-03-31T02:40:43;5.87;;;2.30;;
20004;SDS011;68409;45.498;-73.582;2023-03-31T02:43:09;13.03;;;2.60;;
20004;SDS011;68409;45.498;-73.582;2023-03-31T02:53:42;6.30;;;2.27;;
20004;SDS011;68409;45.498;-73.582;2023-03-31T02:56:46;5.63;;;2.67;;
20004;SDS011;68409;45.498;-73.582;2023-03-31T03:05:19;8.83;;;2.93;;
20004;SDS011;68409;45.498;-73.582;2023-03-31T03:10:26;14.33;;;3.37;;
20004;SDS011;68409;45.498;-73.582;2023-03-31T03:15:32;7.67;;;2.47;;
20004;SDS011;68409;45.498;-73.582;2023-03-31T03:18:06;2.90;;;1.93;;
20004;SDS011;68409;45.498;-73.582;2023-03-31T03:20:33;4.03;;;2.20;;
20004;SDS011;68409;45.498;-73.582;2023-03-31T03:23:00;6.10;;;2.93;;
20004;SDS011;68409;45.498;-73.582;2023-03-31T03:25:26;3.90;;;1.93;;
20004;SDS011;68409;45.498;-73.582;2023-03-31T03:27:54;7.37;;;3.10;;
20004;SDS011;68409;45.498;-73.582;2023-03-31T03:30:20;8.57;;;2.70;;
20004;SDS011;68409;45.498;-73.582;2023-03-31T03:32:46;7.40;;;3.13;;
20004;SDS011;68409;45.498;-73.582;2023-03-31T03:35:13;5.53;;;3.03;;
20004;SDS011;68409;45.498;-73.582;2023-03-31T03:37:39;13.90;;;3.23;;
20004;SDS011;68409;45.498;-73.582;2023-03-31T03:40:05;6.20;;;2.53;;
20004;SDS011;68409;45.498;-73.582;2023-03-31T03:42:33;6.40;;;2.70;;
20004;SDS011;68409;45.498;-73.582;2023-03-31T03:44:59;3.97;;;2.77;;
20004;SDS011;68409;45.498;-73.582;2023-03-31T03:47:26;8.40;;;2.53;;
20004;SDS011;68409;45.498;-73.582;2023-03-31T03:49:53;6.20;;;2.57;;
20004;SDS011;68409;45.498;-73.582;2023-03-31T03:52:19;5.63;;;2.60;;
20004;SDS011;68409;45.498;-73.582;2023-03-31T03:54:45;8.83;;;2.67;;
20004;SDS011;68409;45.498;-73.582;2023-03-31T03:57:11;5.10;;;3.10;;
20004;SDS011;68409;45.498;-73.582;2023-03-31T03:59:37;4.97;;;2.47;;
20004;SDS011;68409;45.498;-73.582;2023-03-31T04:02:04;4.63;;;2.77;;
20004;SDS011;68409;45.498;-73.582;2023-03-31T04:04:30;5.73;;;2.67;;
20004;SDS011;68409;45.498;-73.582;2023-03-31T04:06:56;5.90;;;2.97;;
20004;SDS011;68409;45.498;-73.582;2023-03-31T04:09:22;6.53;;;3.10;;
20004;SDS011;68409;45.498;-73.582;2023-03-31T04:11:48;4.87;;;2.80;;
20004;SDS011;68409;45.498;-73.582;2023-03-31T04:14:14;5.10;;;2.93;;
20004;SDS011;68409;45.498;-73.582;2023-03-31T04:16:40;13.50;;;3.30;;
20004;SDS011;68409;45.498;-73.582;2023-03-31T04:19:06;7.07;;;2.90;;
20004;SDS011;68409;45.498;-73.582;2023-03-31T04:21:35;5.40;;;2.77;;
20004;SDS011;68409;45.498;-73.582;2023-03-31T04:24:12;6.43;;;3.30;;
20004;SDS011;68409;45.498;-73.582;2023-03-31T04:26:45;4.83;;;3.07;;
20004;SDS011;68409;45.498;-73.582;2023-03-31T04:29:14;6.23;;;2.63;;
20004;SDS011;68409;45.498;-73.582;2023-03-31T04:31:42;6.00;;;2.93;;
20004;SDS011;68409;45.498;-73.582;2023-03-31T04:34:09;6.53;;;3.13;;
20004;SDS011;68409;45.498;-73.582;2023-03-31T04:36:40;7.47;;;2.50;;
20004;SDS011;68409;45.498;-73.582;2023-03-31T04:39:14;6.93;;;3.43;;
20004;SDS011;68409;45.498;-73.582;2023-03-31T04:41:41;5.97;;;2.73;;
20004;SDS011;68409;45.498;-73.582;2023-03-31T04:44:07;4.57;;;3.40;;
20004;SDS011;68409;45.498;-73.582;2023-03-31T04:46:34;5.90;;;3.20;;
20004;SDS011;68409;45.498;-73.582;2023-03-31T04:49:00;5.20;;;2.93;;
20004;SDS011;68409;45.498;-73.582;2023-03-31T04:51:27;4.57;;;3.13;;
20004;SDS011;68409;45.498;-73.582;2023-03-31T04:53:53;4.50;;;3.57;;
20004;SDS011;68409;45.498;-73.582;2023-03-31T04:56:20;6.23;;;3.67;;
20004;SDS011;68409;45.498;-73.582;2023-03-31T04:58:47;7.30;;;3.17;;
20004;SDS011;68409;45.498;-73.582;2023-03-31T05:01:13;5.67;;;3.37;;
20004;SDS011;68409;45.498;-73.582;2023-03-31T05:03:42;9.73;;;3.73;;
20004;SDS011;68409;45.498;-73.582;2023-03-31T05:06:09;6.37;;;3.37;;
20004;SDS011;68409;45.498;-73.582;2023-03-31T05:08:36;7.43;;;3.90;;
20004;SDS011;68409;45.498;-73.582;2023-03-31T05:11:02;7.90;;;3.70;;
20004;SDS011;68409;45.498;-73.582;2023-03-31T05:13:29;4.13;;;3.17;;
20004;SDS011;68409;45.498;-73.582;2023-03-31T05:15:55;8.60;;;3.60;;
20004;SDS011;68409;45.498;-73.582;2023-03-31T05:18:21;5.20;;;3.73;;
20004;SDS011;68409;45.498;-73.582;2023-03-31T05:20:48;6.23;;;4.13;;
20004;SDS011;68409;45.498;-73.582;2023-03-31T05:23:14;7.40;;;3.93;;
20004;SDS011;68409;45.498;-73.582;2023-03-31T05:25:40;7.77;;;3.93;;
20004;SDS011;68409;45.498;-73.582;2023-03-31T05:28:06;4.53;;;3.67;;
20004;SDS011;68409;45.498;-73.582;2023-03-31T05:30:34;5.03;;;3.90;;
20004;SDS011;68409;45.498;-73.582;2023-03-31T05:33:00;7.83;;;3.90;;
20004;SDS011;68409;45.498;-73.582;2023-03-31T05:35:26;5.10;;;3.40;;
20004;SDS011;68409;45.498;-73.582;2023-03-31T05:37:54;6.40;;;3.57;;
20004;SDS011;68409;45.498;-73.582;2023-03-31T05:40:20;5.50;;;4.00;;
20004;SDS011;68409;45.498;-73.582;2023-03-31T05:42:46;9.53;;;4.70;;
20004;SDS011;68409;45.498;-73.582;2023-03-31T05:45:12;6.80;;;4.13;;
20004;SDS011;68409;45.498;-73.582;2023-03-31T05:47:38;6.53;;;4.27;;
20004;SDS011;68409;45.498;-73.582;2023-03-31T05:50:05;6.37;;;4.10;;
20004;SDS011;68409;45.498;-73.582;2023-03-31T05:52:33;6.63;;;4.33;;
20004;SDS011;68409;45.498;-73.582;2023-03-31T05:54:59;15.47;;;4.00;;
20004;SDS011;68409;45.498;-73.582;2023-03-31T05:57:25;7.93;;;3.87;;
20004;SDS011;68409;45.498;-73.582;2023-03-31T05:59:51;4.43;;;3.70;;
20004;SDS011;68409;45.498;-73.582;2023-03-31T06:02:18;9.23;;;4.47;;
20004;SDS011;68409;45.498;-73.582;2023-03-31T06:04:44;7.33;;;4.00;;
20004;SDS011;68409;45.498;-73.582;2023-03-31T06:07:10;6.87;;;4.30;;
20004;SDS011;68409;45.498;-73.582;2023-03-31T06:09:37;10.83;;;4.53;;
20004;SDS011;68409;45.498;-73.582;2023-03-31T06:12:03;10.60;;;5.10;;
20004;SDS011;68409;45.498;-73.582;2023-03-31T06:14:30;8.13;;;4.43;;
20004;SDS011;68409;45.498;-73.582;2023-03-31T06:16:56;10.87;;;5.30;;
20004;SDS011;68409;45.498;-73.582;2023-03-31T06:19:22;9.10;;;5.07;;
20004;SDS011;68409;45.498;-73.582;2023-03-31T06:21:49;7.33;;;4.53;;
20004;SDS011;68409;45.498;-73.582;2023-03-31T06:24:15;8.27;;;4.03;;
20004;SDS011;68409;45.498;-73.582;2023-03-31T06:26:41;7.73;;;5.00;;
20004;SDS011;68409;45.498;-73.582;2023-03-31T06:29:07;10.70;;;4.50;;
20004;SDS011;68409;45.498;-73.582;2023-03-31T06:31:33;7.70;;;5.57;;
20004;SDS011;68409;45.498;-73.582;2023-03-31T06:34:00;6.50;;;4.33;;
20004;SDS011;68409;45.498;-73.582;2023-03-31T06:36:26;6.33;;;4.60;;
20004;SDS011;68409;45.498;-73.582;2023-03-31T06:38:52;8.73;;;4.93;;
20004;SDS011;68409;45.498;-73.582;2023-03-31T06:41:19;6.83;;;4.00;;
20004;SDS011;68409;45.498;-73.582;2023-03-31T06:43:46;6.33;;;4.57;;
20004;SDS011;68409;45.498;-73.582;2023-03-31T06:46:12;10.10;;;5.20;;
20004;SDS011;68409;45.498;-73.582;2023-03-31T06:48:39;9.60;;;4.80;;
20004;SDS011;68409;45.498;-73.582;2023-03-31T06:51:05;10.93;;;5.20;;
20004;SDS011;68409;45.498;-73.582;2023-03-31T06:53:33;15.60;;;5.37;;
20004;SDS011;68409;45.498;-73.582;2023-03-31T06:55:59;7.43;;;4.47;;
20004;SDS011;68409;45.498;-73.582;2023-03-31T06:58:25;9.47;;;5.00;;
20004;SDS011;68409;45.498;-73.582;2023-03-31T07:00:51;7.27;;;4.30;;
20004;SDS011;68409;45.498;-73.582;2023-03-31T07:03:17;9.27;;;4.87;;
20004;SDS011;68409;45.498;-73.582;2023-03-31T07:05:50;9.23;;;4.47;;
20004;SDS011;68409;45.498;-73.582;2023-03-31T07:08:17;6.83;;;4.50;;
20004;SDS011;68409;45.498;-73.582;2023-03-31T07:10:44;7.63;;;4.70;;
20004;SDS011;68409;45.498;-73.582;2023-03-31T07:13:13;11.20;;;4.90;;
20004;SDS011;68409;45.498;-73.582;2023-03-31T07:15:40;7.80;;;4.70;;
20004;SDS011;68409;45.498;-73.582;2023-03-31T07:18:06;10.53;;;4.30;;
20004;SDS011;68409;45.498;-73.582;2023-03-31T07:20:33;10.57;;;5.53;;
20004;SDS011;68409;45.498;-73.582;2023-03-31T07:23:01;7.17;;;4.67;;
20004;SDS011;68409;45.498;-73.582;2023-03-31T07:25:29;7.10;;;4.77;;
20004;SDS011;68409;45.498;-73.582;2023-03-31T07:27:55;6.77;;;4.90;;
20004;SDS011;68409;45.498;-73.582;2023-03-31T07:30:21;8.63;;;5.60;;
20004;SDS011;68409;45.498;-73.582;2023-03-31T07:32:49;7.20;;;4.90;;
20004;SDS011;68409;45.498;-73.582;2023-03-31T07:35:16;8.10;;;5.47;;
20004;SDS011;68409;45.498;-73.582;2023-03-31T07:37:44;10.00;;;4.50;;
20004;SDS011;68409;45.498;-73.582;2023-03-31T07:40:15;11.57;;;4.40;;
20004;SDS011;68409;45.498;-73.582;2023-03-31T07:42:44;7.70;;;4.60;;
20004;SDS011;68409;45.498;-73.582;2023-03-31T07:45:15;7.30;;;4.77;;
20004;SDS011;68409;45.498;-73.582;2023-03-31T07:47:42;10.93;;;5.20;;
20004;SDS011;68409;45.498;-73.582;2023-03-31T07:50:10;11.23;;;5.07;;
20004;SDS011;68409;45.498;-73.582;2023-03-31T07:52:38;7.70;;;4.90;;
20004;SDS011;68409;45.498;-73.582;2023-03-31T07:55:04;12.43;;;5.07;;
20004;SDS011;68409;45.498;-73.582;2023-03-31T07:57:31;9.67;;;5.60;;
20004;SDS011;68409;45.498;-73.582;2023-03-31T07:59:57;11.50;;;5.00;;
20004;SDS011;68409;45.498;-73.582;2023-03-31T08:02:23;9.20;;;5.40;;
20004;SDS011;68409;45.498;-73.582;2023-03-31T08:04:49;8.43;;;4.40;;
20004;SDS011;68409;45.498;-73.582;2023-03-31T08:07:15;8.60;;;4.80;;
20004;SDS011;68409;45.498;-73.582;2023-03-31T08:09:42;12.87;;;5.00;;
20004;SDS011;68409;45.498;-73.582;2023-03-31T08:12:10;9.00;;;5.17;;
20004;SDS011;68409;45.498;-73.582;2023-03-31T08:14:36;10.20;;;5.23;;
20004;SDS011;68409;45.498;-73.582;2023-03-31T08:17:02;7.10;;;4.87;;
20004;SDS011;68409;45.498;-73.582;2023-03-31T08:19:28;7.17;;;5.03;;
20004;SDS011;68409;45.498;-73.582;2023-03-31T08:21:55;7.40;;;5.20;;
20004;SDS011;68409;45.498;-73.582;2023-03-31T08:24:21;8.57;;;5.00;;
20004;SDS011;68409;45.498;-73.582;2023-03-31T08:26:47;7.83;;;5.07;;
20004;SDS011;68409;45.498;-73.582;2023-03-31T08:29:13;10.97;;;5.97;;
20004;SDS011;68409;45.498;-73.582;2023-03-31T08:31:39;10.13;;;5.57;;
20004;SDS011;68409;45.498;-73.582;2023-03-31T08:34:05;9.20;;;4.80;;
20004;SDS011;68409;45.498;-73.582;2023-03-31T08:36:32;6.50;;;5.03;;
20004;SDS011;68409;45.498;-73.582;2023-03-31T08:38:58;8.73;;;5.50;;
20004;SDS011;68409;45.498;-73.582;2023-03-31T08:44:35;8.10;;;4.83;;
20004;SDS011;68409;45.498;-73.582;2023-03-31T08:47:12;14.70;;;5.60;;
20004;SDS011;68409;45.498;-73.582;2023-03-31T08:49:48;6.13;;;4.67;;
20004;SDS011;68409;45.498;-73.582;2023-03-31T08:52:21;12.33;;;5.47;;
20004;SDS011;68409;45.498;-73.582;2023-03-31T08:54:52;9.70;;;5.70;;
20004;SDS011;68409;45.498;-73.582;2023-03-31T09:00:19;9.57;;;5.53;;
20004;SDS011;68409;45.498;-73.582;2023-03-31T09:05:59;12.37;;;5.70;;
20004;SDS011;68409;45.498;-73.582;2023-03-31T09:11:43;10.13;;;5.47;;
20004;SDS011;68409;45.498;-73.582;2023-03-31T09:16:47;8.83;;;5.77;;
20004;SDS011;68409;45.498;-73.582;2023-03-31T09:19:24;12.73;;;5.80;;
20004;SDS011;68409;45.498;-73.582;2023-03-31T09:22:10;11.53;;;5.17;;
20004;SDS011;68409;45.498;-73.582;2023-03-31T09:24:46;9.60;;;5.73;;
20004;SDS011;68409;45.498;-73.582;2023-03-31T09:27:34;9.00;;;5.30;;
20004;SDS011;68409;45.498;-73.582;2023-03-31T09:30:03;15.80;;;5.80;;
20004;SDS011;68409;45.498;-73.582;2023-03-31T09:35:59;8.23;;;5.03;;
20004;SDS011;68409;45.498;-73.582;2023-03-31T09:38:26;13.07;;;5.97;;
20004;SDS011;68409;45.498;-73.582;2023-03-31T09:40:54;10.47;;;5.50;;
20004;SDS011;68409;45.498;-73.582;2023-03-31T09:43:25;12.07;;;5.97;;
20004;SDS011;68409;45.498;-73.582;2023-03-31T09:45:59;12.50;;;4.97;;
20004;SDS011;68409;45.498;-73.582;2023-03-31T09:48:28;12.07;;;5.73;;
20004;SDS011;68409;45.498;-73.582;2023-03-31T09:51:01;10.23;;;5.97;;
20004;SDS011;68409;45.498;-73.582;2023-03-31T09:56:30;11.87;;;5.87;;
20004;SDS011;68409;45.498;-73.582;2023-03-31T09:59:02;15.97;;;7.07;;
20004;SDS011;68409;45.498;-73.582;2023-03-31T10:01:28;14.80;;;5.90;;
20004;SDS011;68409;45.498;-73.582;2023-03-31T10:03:54;12.60;;;6.40;;
20004;SDS011;68409;45.498;-73.582;2023-03-31T10:06:22;12.73;;;6.30;;
20004;SDS011;68409;45.498;-73.582;2023-03-31T10:09:00;14.67;;;6.93;;
20004;SDS011;68409;45.498;-73.582;2023-03-31T10:11:29;14.30;;;7.07;;
20004;SDS011;68409;45.498;-73.582;2023-03-31T10:14:03;16.20;;;6.60;;
20004;SDS011;68409;45.498;-73.582;2023-03-31T10:16:53;13.63;;;6.47;;
20004;SDS011;68409;45.498;-73.582;2023-03-31T10:19:22;10.60;;;6.30;;
20004;SDS011;68409;45.498;-73.582;2023-03-31T10:21:54;13.80;;;7.03;;
20004;SDS011;68409;45.498;-73.582;2023-03-31T10:24:26;12.00;;;5.80;;
20004;SDS011;68409;45.498;-73.582;2023-03-31T10:27:04;15.10;;;5.93;;
20004;SDS011;68409;45.498;-73.582;2023-03-31T10:29:32;10.90;;;5.73;;
20004;SDS011;68409;45.498;-73.582;2023-03-31T10:32:19;14.67;;;6.70;;
20004;SDS011;68409;45.498;-73.582;2023-03-31T10:34:52;12.17;;;5.70;;
20004;SDS011;68409;45.498;-73.582;2023-03-31T10:37:24;18.80;;;6.63;;
20004;SDS011;68409;45.498;-73.582;2023-03-31T10:39:56;12.37;;;6.10;;
20004;SDS011;68409;45.498;-73.582;2023-03-31T10:42:31;9.67;;;5.33;;
20004;SDS011;68409;45.498;-73.582;2023-03-31T10:45:23;10.97;;;5.90;;
20004;SDS011;68409;45.498;-73.582;2023-03-31T10:47:52;14.23;;;6.10;;
20004;SDS011;68409;45.498;-73.582;2023-03-31T10:50:25;14.33;;;5.97;;
20004;SDS011;68409;45.498;-73.582;2023-03-31T10:52:53;17.30;;;5.67;;
20004;SDS011;68409;45.498;-73.582;2023-03-31T10:55:38;11.60;;;5.57;;
20004;SDS011;68409;45.498;-73.582;2023-03-31T11:03:37;10.10;;;5.47;;
20004;SDS011;68409;45.498;-73.582;2023-03-31T11:06:38;9.07;;;5.30;;
20004;SDS011;68409;45.498;-73.582;2023-03-31T11:12:37;11.27;;;5.87;;
20004;SDS011;68409;45.498;-73.582;2023-03-31T11:15:21;11.87;;;5.23;;
20004;SDS011;68409;45.498;-73.582;2023-03-31T11:18:14;12.57;;;6.03;;
20004;SDS011;68409;45.498;-73.582;2023-03-31T11:23:42;11.87;;;5.03;;
20004;SDS011;68409;45.498;-73.582;2023-03-31T11:26:31;16.40;;;5.93;;
20004;SDS011;68409;45.498;-73.582;2023-03-31T11:34:45;12.20;;;5.50;;
20004;SDS011;68409;45.498;-73.582;2023-03-31T11:42:41;11.80;;;5.80;;
20004;SDS011;68409;45.498;-73.582;2023-03-31T11:45:39;8.50;;;5.27;;
20004;SDS011;68409;45.498;-73.582;2023-03-31T11:48:45;12.10;;;6.03;;
20004;SDS011;68409;45.498;-73.582;2023-03-31T11:51:04;13.97;;;5.47;;
20004;SDS011;68409;45.498;-73.582;2023-03-31T11:53:36;11.80;;;5.90;;
20004;SDS011;68409;45.498;-73.582;2023-03-31T11:56:06;14.73;;;5.80;;
20004;SDS011;68409;45.498;-73.582;2023-03-31T11:58:46;14.10;;;5.63;;
20004;SDS011;68409;45.498;-73.582;2023-03-31T12:06:49;10.17;;;5.60;;
20004;SDS011;68409;45.498;-73.582;2023-03-31T12:11:56;10.60;;;5.37;;
20004;SDS011;68409;45.498;-73.582;2023-03-31T12:17:31;13.60;;;6.37;;
20004;SDS011;68409;45.498;-73.582;2023-03-31T12:20:01;17.20;;;6.50;;
20004;SDS011;68409;45.498;-73.582;2023-03-31T12:22:42;16.50;;;6.53;;
20004;SDS011;68409;45.498;-73.582;2023-03-31T12:25:13;8.97;;;5.90;;
20004;SDS011;68409;45.498;-73.582;2023-03-31T12:27:44;18.47;;;7.63;;
20004;SDS011;68409;45.498;-73.582;2023-03-31T12:33:03;23.70;;;6.63;;
20004;SDS011;68409;45.498;-73.582;2023-03-31T12:38:38;18.30;;;6.33;;
20004;SDS011;68409;45.498;-73.582;2023-03-31T12:41:36;18.57;;;6.53;;
20004;SDS011;68409;45.498;-73.582;2023-03-31T12:44:15;13.33;;;5.80;;
20004;SDS011;68409;45.498;-73.582;2023-03-31T12:52:27;9.03;;;4.97;;
20004;SDS011;68409;45.498;-73.582;2023-03-31T13:03:41;10.10;;;4.50;;
20004;SDS011;68409;45.498;-73.582;2023-03-31T13:08:56;12.50;;;4.70;;
20004;SDS011;68409;45.498;-73.582;2023-03-31T13:14:18;9.93;;;4.83;;
20004;SDS011;68409;45.498;-73.582;2023-03-31T13:16:49;12.13;;;4.77;;
20004;SDS011;68409;45.498;-73.582;2023-03-31T13:19:39;5.93;;;4.00;;
20004;SDS011;68409;45.498;-73.582;2023-03-31T13:22:19;7.60;;;4.23;;
20004;SDS011;68409;45.498;-73.582;2023-03-31T13:25:23;12.13;;;4.50;;
20004;SDS011;68409;45.498;-73.582;2023-03-31T13:28:44;19.07;;;4.60;;
20004;SDS011;68409;45.498;-73.582;2023-03-31T13:30:56;7.00;;;4.30;;
20004;SDS011;68409;45.498;-73.582;2023-03-31T13:33:33;10.63;;;3.93;;
20004;SDS011;68409;45.498;-73.582;2023-03-31T13:39:08;18.33;;;4.60;;
20004;SDS011;68409;45.498;-73.582;2023-03-31T13:44:48;10.70;;;4.10;;
20004;SDS011;68409;45.498;-73.582;2023-03-31T13:50:15;5.10;;;3.60;;
20004;SDS011;68409;45.498;-73.582;2023-03-31T13:53:03;5.93;;;4.10;;
20004;SDS011;68409;45.498;-73.582;2023-03-31T13:55:51;8.10;;;4.10;;
20004;SDS011;68409;45.498;-73.582;2023-03-31T14:04:05;11.50;;;4.97;;
20004;SDS011;68409;45.498;-73.582;2023-03-31T14:07:04;19.03;;;4.07;;
20004;SDS011;68409;45.498;-73.582;2023-03-31T14:09:42;10.93;;;3.70;;
20004;SDS011;68409;45.498;-73.582;2023-03-31T14:12:33;12.50;;;4.47;;
20004;SDS011;68409;45.498;-73.582;2023-03-31T14:15:01;12.03;;;4.53;;
20004;SDS011;68409;45.498;-73.582;2023-03-31T14:17:29;12.20;;;3.80;;
20004;SDS011;68409;45.498;-73.582;2023-03-31T14:26:00;9.70;;;4.13;;
20004;SDS011;68409;45.498;-73.582;2023-03-31T14:39:03;19.70;;;10.67;;
20004;SDS011;68409;45.498;-73.582;2023-03-31T14:41:33;17.07;;;7.10;;
20004;SDS011;68409;45.498;-73.582;2023-03-31T14:44:03;15.73;;;5.00;;
20004;SDS011;68409;45.498;-73.582;2023-03-31T14:46:38;7.00;;;4.60;;
20004;SDS011;68409;45.498;-73.582;2023-03-31T14:51:51;11.87;;;4.60;;
20004;SDS011;68409;45.498;-73.582;2023-03-31T14:54:18;14.03;;;4.40;;
20004;SDS011;68409;45.498;-73.582;2023-03-31T14:56:46;12.83;;;4.77;;
20004;SDS011;68409;45.498;-73.582;2023-03-31T14:59:23;7.27;;;4.30;;
20004;SDS011;68409;45.498;-73.582;2023-03-31T15:01:53;8.33;;;4.73;;
20004;SDS011;68409;45.498;-73.582;2023-03-31T15:04:23;10.37;;;4.40;;
20004;SDS011;68409;45.498;-73.582;2023-03-31T15:06:52;11.10;;;4.20;;
20004;SDS011;68409;45.498;-73.582;2023-03-31T15:09:20;11.53;;;4.17;;
20004;SDS011;68409;45.498;-73.582;2023-03-31T15:11:57;13.83;;;4.10;;
20004;SDS011;68409;45.498;-73.582;2023-03-31T15:14:32;13.13;;;3.80;;
20004;SDS011;68409;45.498;-73.582;2023-03-31T15:17:02;11.13;;;4.20;;
20004;SDS011;68409;45.498;-73.582;2023-03-31T15:19:29;6.00;;;3.57;;
20004;SDS011;68409;45.498;-73.582;2023-03-31T15:22:19;6.90;;;3.70;;
20004;SDS011;68409;45.498;-73.582;2023-03-31T15:24:46;6.50;;;4.13;;
20004;SDS011;68409;45.498;-73.582;2023-03-31T15:27:13;6.10;;;3.70;;
20004;SDS011;68409;45.498;-73.582;2023-03-31T15:29:57;4.60;;;3.60;;
20004;SDS011;68409;45.498;-73.582;2023-03-31T15:32:27;10.77;;;4.20;;
20004;SDS011;68409;45.498;-73.582;2023-03-31T15:34:55;6.00;;;3.50;;
20004;SDS011;68409;45.498;-73.582;2023-03-31T15:37:24;7.03;;;4.10;;
20004;SDS011;68409;45.498;-73.582;2023-03-31T15:39:55;5.83;;;3.30;;
20004;SDS011;68409;45.498;-73.582;2023-03-31T15:42:23;7.13;;;3.77;;
20004;SDS011;68409;45.498;-73.582;2023-03-31T15:47:49;4.93;;;3.63;;
20004;SDS011;68409;45.498;-73.582;2023-03-31T15:50:21;10.93;;;4.40;;
20004;SDS011;68409;45.498;-73.582;2023-03-31T15:52:49;16.97;;;5.17;;
20004;SDS011;68409;45.498;-73.582;2023-03-31T15:55:24;10.43;;;4.70;;
20004;SDS011;68409;45.498;-73.582;2023-03-31T15:57:57;9.47;;;4.47;;
20004;SDS011;68409;45.498;-73.582;2023-03-31T16:03:13;10.83;;;4.50;;
20004;SDS011;68409;45.498;-73.582;2023-03-31T16:06:14;8.57;;;4.27;;
20004;SDS011;68409;45.498;-73.582;2023-03-31T16:08:46;17.33;;;4.80;;
20004;SDS011;68409;45.498;-73.582;2023-03-31T16:11:22;13.43;;;5.80;;
20004;SDS011;68409;45.498;-73.582;2023-03-31T16:14:00;13.23;;;4.80;;
20004;SDS011;68409;45.498;-73.582;2023-03-31T16:16:37;11.93;;;4.60;;
20004;SDS011;68409;45.498;-73.582;2023-03-31T16:19:07;14.37;;;4.80;;
20004;SDS011;68409;45.498;-73.582;2023-03-31T16:21:39;8.87;;;5.00;;
20004;SDS011;68409;45.498;-73.582;2023-03-31T16:24:10;9.83;;;4.70;;
20004;SDS011;68409;45.498;-73.582;2023-03-31T16:26:41;5.90;;;4.10;;
20004;SDS011;68409;45.498;-73.582;2023-03-31T16:29:08;9.50;;;4.47;;
20004;SDS011;68409;45.498;-73.582;2023-03-31T16:31:43;6.53;;;4.40;;
20004;SDS011;68409;45.498;-73.582;2023-03-31T16:34:11;9.37;;;5.03;;
20004;SDS011;68409;45.498;-73.582;2023-03-31T16:36:37;10.70;;;5.10;;
20004;SDS011;68409;45.498;-73.582;2023-03-31T16:39:05;11.37;;;5.10;;
20004;SDS011;68409;45.498;-73.582;2023-03-31T16:41:32;9.63;;;5.20;;
20004;SDS011;68409;45.498;-73.582;2023-03-31T16:43:59;15.90;;;5.40;;
20004;SDS011;68409;45.498;-73.582;2023-03-31T16:46:26;13.10;;;5.10;;
20004;SDS011;68409;45.498;-73.582;2023-03-31T16:48:53;14.73;;;5.43;;
20004;SDS011;68409;45.498;-73.582;2023-03-31T16:51:19;13.87;;;5.10;;
20004;SDS011;68409;45.498;-73.582;2023-03-31T16:53:46;6.93;;;4.70;;
20004;SDS011;68409;45.498;-73.582;2023-03-31T16:56:12;10.20;;;4.97;;
20004;SDS011;68409;45.498;-73.582;2023-03-31T16:58:40;8.60;;;4.20;;
20004;SDS011;68409;45.498;-73.582;2023-03-31T17:01:07;11.87;;;4.77;;
20004;SDS011;68409;45.498;-73.582;2023-03-31T17:03:34;20.43;;;4.90;;
20004;SDS011;68409;45.498;-73.582;2023-03-31T17:06:09;9.80;;;4.17;;
20004;SDS011;68409;45.498;-73.582;2023-03-31T17:08:38;9.20;;;4.33;;
20004;SDS011;68409;45.498;-73.582;2023-03-31T17:11:09;11.53;;;5.27;;
20004;SDS011;68409;45.498;-73.582;2023-03-31T17:13:37;17.63;;;4.90;;
20004;SDS011;68409;45.498;-73.582;2023-03-31T17:16:05;9.87;;;5.33;;
20004;SDS011;68409;45.498;-73.582;2023-03-31T17:18:33;13.00;;;4.77;;
20004;SDS011;68409;45.498;-73.582;2023-03-31T17:21:06;10.63;;;5.07;;
20004;SDS011;68409;45.498;-73.582;2023-03-31T17:23:34;10.03;;;4.73;;
20004;SDS011;68409;45.498;-73.582;2023-03-31T17:26:02;10.33;;;5.20;;
20004;SDS011;68409;45.498;-73.582;2023-03-31T17:28:28;10.47;;;4.87;;
20004;SDS011;68409;45.498;-73.582;2023-03-31T17:31:17;7.37;;;4.20;;
20004;SDS011;68409;45.498;-73.582;2023-03-31T17:33:48;44.93;;;12.60;;